Time;durP1;ratioP1;P1;durP2;ratioP2;P2;SDS_P1;SDS_P2;PMS_P1;PMS_P2;Temp;Humidity;BMP_temperature;BMP_pressure;BME280_temperature;BME280_humidity;BME280_pressure;Samples;Min_cycle;Max_cycle;Signal;HPM_P1;HPM_P2
2022/12/25 00:01:07;;;;;;;11.50;2.95;;;12.60;59.70;;;;;;5018479;28;20053;-42
2022/12/25 00:03:35;;;;;;;11.10;3.08;;;12.60;59.70;;;;;;5018483;28;20053;-47
2022/12/25 00:06:03;;;;;;;13.57;3.63;;;12.60;59.80;;;;;;5015469;28;20437;-47
2022/12/25 00:08:30;;;;;;;13.00;3.03;;;12.60;59.80;;;;;;5018579;28;20529;-46
2022/12/25 00:10:58;;;;;;;8.57;2.88;;;12.50;59.70;;;;;;5016474;28;20049;-48
2022/12/25 00:13:26;;;;;;;8.30;2.42;;;12.50;59.80;;;;;;5022358;28;20453;-46
2022/12/25 00:15:53;;;;;;;12.13;2.35;;;12.50;59.80;;;;;;5021741;28;20049;-46
2022/12/25 00:18:21;;;;;;;12.73;2.50;;;12.60;59.90;;;;;;5021071;28;20057;-44
2022/12/25 00:20:58;;;;;;;12.32;2.65;;;12.50;59.90;;;;;;5018247;28;20049;-47
2022/12/25 00:23:25;;;;;;;10.48;2.33;;;12.50;60.10;;;;;;5015276;28;20049;-43
2022/12/25 00:25:53;;;;;;;10.55;2.58;;;12.50;60.00;;;;;;5018801;28;20050;-44
2022/12/25 00:28:20;;;;;;;11.82;3.08;;;12.60;60.10;;;;;;5016617;28;20072;-46
2022/12/25 00:30:48;;;;;;;8.25;2.83;;;12.50;60.10;;;;;;5018649;28;20074;-43
2022/12/25 00:33:15;;;;;;;12.23;2.60;;;12.50;60.10;;;;;;5014116;28;20405;-48
2022/12/25 00:35:43;;;;;;;7.50;2.47;;;12.50;60.10;;;;;;5019011;28;20057;-43
2022/12/25 00:38:12;;;;;;;10.68;2.55;;;12.50;60.10;;;;;;5020042;28;20489;-48
2022/12/25 00:40:43;;;;;;;13.20;3.10;;;12.50;60.00;;;;;;5017728;28;20053;-44
2022/12/25 00:43:11;;;;;;;8.98;2.25;;;12.50;60.00;;;;;;5016352;28;20420;-44
2022/12/25 00:45:38;;;;;;;12.07;2.25;;;12.50;60.00;;;;;;5019098;28;20049;-46
2022/12/25 00:48:05;;;;;;;10.52;2.38;;;12.50;59.90;;;;;;5020221;28;20060;-44
2022/12/25 00:50:33;;;;;;;11.43;2.50;;;12.50;59.90;;;;;;5016405;28;20045;-45
2022/12/25 00:53:00;;;;;;;8.63;2.60;;;12.50;60.00;;;;;;5019813;28;20064;-46
2022/12/25 00:55:30;;;;;;;9.70;2.70;;;12.50;60.10;;;;;;5016861;28;20049;-44
2022/12/25 00:57:59;;;;;;;10.90;2.53;;;12.40;60.30;;;;;;5020594;28;20049;-46
2022/12/25 01:00:26;;;;;;;15.45;3.25;;;12.40;60.30;;;;;;5015701;28;20057;-42
2022/12/25 01:02:53;;;;;;;12.57;3.40;;;12.50;60.50;;;;;;5020127;28;20065;-45
2022/12/25 01:05:20;;;;;;;9.70;2.42;;;12.50;60.70;;;;;;5019908;28;20056;-46
2022/12/25 01:07:47;;;;;;;12.68;3.00;;;12.40;60.60;;;;;;5016404;28;20445;-47
2022/12/25 01:10:21;;;;;;;9.70;2.42;;;12.50;60.80;;;;;;5019108;28;20471;-45
2022/12/25 01:12:51;;;;;;;6.70;1.83;;;12.50;61.00;;;;;;5017739;28;20046;-47
2022/12/25 01:15:19;;;;;;;10.82;2.10;;;12.50;61.20;;;;;;5019592;28;20695;-46
2022/12/25 01:17:46;;;;;;;13.27;2.25;;;12.50;61.30;;;;;;5019672;28;20440;-46
2022/12/25 01:20:15;;;;;;;5.47;1.90;;;12.50;62.10;;;;;;5018166;28;20513;-43
2022/12/25 01:22:43;;;;;;;13.82;2.80;;;12.50;61.50;;;;;;5018427;28;20049;-50
2022/12/25 01:25:11;;;;;;;10.85;2.72;;;12.50;61.60;;;;;;5015518;28;20053;-44
2022/12/25 01:27:38;;;;;;;11.75;2.40;;;12.50;61.70;;;;;;5018732;28;20494;-45
2022/12/25 01:30:08;;;;;;;10.95;2.88;;;12.50;61.70;;;;;;5019085;28;21175;-46
2022/12/25 01:32:35;;;;;;;13.23;2.72;;;12.50;61.80;;;;;;5019732;28;20429;-45
2022/12/25 01:35:03;;;;;;;10.38;2.45;;;12.50;61.90;;;;;;5021150;28;20057;-42
2022/12/25 01:37:30;;;;;;;9.38;2.35;;;12.60;62.10;;;;;;5019103;28;20061;-43
2022/12/25 01:39:58;;;;;;;7.57;1.90;;;12.60;62.30;;;;;;5014731;28;20054;-48
2022/12/25 01:42:25;;;;;;;11.90;2.22;;;12.60;63.00;;;;;;5019570;28;20056;-43
2022/12/25 01:45:31;;;;;;;13.27;2.17;;;12.60;62.30;;;;;;5018077;28;20512;-42
2022/12/25 01:47:59;;;;;;;15.85;2.67;;;12.60;62.60;;;;;;5017279;28;20630;-45
2022/12/25 01:50:27;;;;;;;12.88;2.80;;;12.70;62.40;;;;;;5014410;28;20050;-47
2022/12/25 01:52:56;;;;;;;14.35;2.38;;;12.70;62.40;;;;;;5018175;28;20489;-44
2022/12/25 01:55:23;;;;;;;13.18;2.80;;;12.70;62.50;;;;;;5014941;28;20061;-48
2022/12/25 01:57:51;;;;;;;8.77;2.40;;;12.70;62.60;;;;;;5018410;28;20478;-45
2022/12/25 02:00:18;;;;;;;15.93;2.70;;;12.70;62.60;;;;;;5017195;28;20060;-45
2022/12/25 02:02:48;;;;;;;12.02;2.83;;;12.70;62.60;;;;;;5019470;28;20504;-45
2022/12/25 02:05:20;;;;;;;18.90;3.13;;;12.80;62.70;;;;;;5020124;28;20060;-45
2022/12/25 02:07:49;;;;;;;16.50;3.45;;;12.80;62.70;;;;;;5022329;28;20517;-43
2022/12/25 02:10:17;;;;;;;10.95;2.90;;;12.80;62.60;;;;;;5019876;28;20052;-50
2022/12/25 02:12:45;;;;;;;11.88;2.58;;;12.80;62.60;;;;;;5023086;28;20052;-47
2022/12/25 02:15:15;;;;;;;11.57;2.47;;;12.90;62.70;;;;;;5022529;28;20552;-48
2022/12/25 02:17:50;;;;;;;11.32;2.60;;;12.90;62.70;;;;;;5024564;28;20084;-48
2022/12/25 02:20:42;;;;;;;19.77;3.78;;;12.90;62.60;;;;;;5024185;28;20060;-46
2022/12/25 02:23:49;;;;;;;12.18;2.70;;;12.90;62.70;;;;;;5020162;28;20061;-46
2022/12/25 02:26:31;;;;;;;12.40;2.20;;;12.90;62.60;;;;;;4940688;28;20051;-50
2022/12/25 02:29:05;;;;;;;12.00;3.10;;;13.00;62.40;;;;;;5018729;28;20053;-46
2022/12/25 02:31:39;;;;;;;16.70;2.85;;;13.00;62.40;;;;;;5021913;28;20058;-47
2022/12/25 02:34:13;;;;;;;11.82;2.60;;;13.00;62.50;;;;;;5020140;28;20064;-46
2022/12/25 02:36:47;;;;;;;11.32;2.67;;;13.00;63.10;;;;;;5021348;28;20068;-44
2022/12/25 02:42:12;;;;;;;12.43;2.97;;;13.00;62.50;;;;;;5028772;28;20504;-44
2022/12/25 03:07:07;;;;;;;20.88;3.30;;;13.10;62.50;;;;;;5027804;28;20064;-46
2022/12/25 03:12:38;;;;;;;13.93;2.65;;;13.10;62.40;;;;;;5027088;28;20064;-50
2022/12/25 03:17:57;;;;;;;8.98;2.50;;;13.10;62.40;;;;;;5022649;28;20065;-46
2022/12/25 03:28:41;;;;;;;9.23;2.58;;;13.10;62.30;;;;;;5025489;28;20061;-47
2022/12/25 03:31:15;;;;;;;12.93;3.20;;;13.10;62.30;;;;;;5020416;28;20053;-47
2022/12/25 03:37:22;;;;;;;8.20;2.20;;;13.20;63.10;;;;;;5014271;28;20064;-49
2022/12/25 04:38:31;;;;;;;8.25;2.15;;;13.20;62.20;;;;;;5023546;28;20072;-46
2022/12/25 04:41:01;;;;;;;11.40;2.40;;;13.20;62.20;;;;;;5019695;28;20520;-45
2022/12/25 04:43:28;;;;;;;14.35;3.20;;;13.20;62.20;;;;;;5021256;28;20501;-46
2022/12/25 04:45:56;;;;;;;13.88;2.65;;;13.20;62.20;;;;;;5015486;28;20061;-49
2022/12/25 04:48:24;;;;;;;12.75;2.65;;;13.20;62.20;;;;;;5020772;28;20517;-49
2022/12/25 04:50:51;;;;;;;8.93;2.40;;;13.20;62.20;;;;;;5019969;28;20046;-44
2022/12/25 04:53:19;;;;;;;10.82;2.15;;;13.30;62.30;;;;;;5018766;28;20049;-46
2022/12/25 04:55:46;;;;;;;9.98;2.00;;;13.20;62.20;;;;;;5018609;28;20539;-47
2022/12/25 04:58:15;;;;;;;15.88;2.72;;;13.20;62.20;;;;;;5019963;28;20053;-46
2022/12/25 05:00:42;;;;;;;8.63;2.15;;;13.30;62.20;;;;;;5018521;28;20053;-50
2022/12/25 05:03:09;;;;;;;7.47;1.90;;;13.20;62.10;;;;;;5019329;28;20414;-45
2022/12/25 05:05:39;;;;;;;9.25;2.33;;;13.30;62.20;;;;;;5019924;28;20076;-47
2022/12/25 05:08:06;;;;;;;11.90;2.83;;;13.30;62.10;;;;;;5020284;28;20057;-46
2022/12/25 05:10:33;;;;;;;6.15;1.67;;;13.30;62.20;;;;;;5018360;28;20482;-48
2022/12/25 05:13:00;;;;;;;16.65;3.08;;;13.30;62.10;;;;;;5020631;28;20053;-47
2022/12/25 05:15:29;;;;;;;13.20;2.20;;;13.30;62.00;;;;;;5018408;28;20053;-48
2022/12/25 05:17:56;;;;;;;12.02;2.55;;;13.30;62.00;;;;;;5014117;28;20049;-45
2022/12/25 05:20:23;;;;;;;7.57;2.10;;;13.30;62.00;;;;;;5020073;28;20064;-46
2022/12/25 05:22:51;;;;;;;16.88;2.63;;;13.40;62.00;;;;;;5020378;28;20045;-45
2022/12/25 05:25:18;;;;;;;7.40;1.90;;;13.30;61.90;;;;;;5016319;28;20056;-44
2022/12/25 05:27:45;;;;;;;6.75;1.98;;;13.30;61.80;;;;;;5021030;28;20053;-47
2022/12/25 05:30:13;;;;;;;9.45;1.95;;;13.30;61.80;;;;;;5019888;28;20516;-47
2022/12/25 05:32:41;;;;;;;15.02;2.42;;;13.30;61.80;;;;;;5019402;28;20494;-49
2022/12/25 05:35:09;;;;;;;8.15;1.90;;;13.30;61.70;;;;;;5019902;28;20057;-45
2022/12/25 05:37:36;;;;;;;8.88;2.30;;;13.40;61.80;;;;;;5022744;28;20049;-46
2022/12/25 05:40:05;;;;;;;15.75;2.47;;;13.30;61.70;;;;;;5020993;28;20057;-49
2022/12/25 05:42:32;;;;;;;8.02;1.85;;;13.40;61.80;;;;;;5024762;28;20061;-49
2022/12/25 05:44:59;;;;;;;9.02;2.22;;;13.30;61.80;;;;;;5024366;28;20057;-47
2022/12/25 05:47:26;;;;;;;17.90;2.67;;;13.30;61.80;;;;;;5022606;28;20508;-48
2022/12/25 05:49:55;;;;;;;12.18;2.67;;;13.30;61.70;;;;;;5023681;28;20433;-48
2022/12/25 05:52:22;;;;;;;11.05;2.60;;;13.30;61.70;;;;;;5024138;28;20046;-45
2022/12/25 05:54:49;;;;;;;14.43;2.88;;;13.30;61.70;;;;;;5020605;28;20057;-48
2022/12/25 05:57:16;;;;;;;14.10;2.60;;;13.30;61.80;;;;;;5022843;28;20053;-47
2022/12/25 05:59:44;;;;;;;8.25;2.17;;;13.30;61.80;;;;;;5024802;28;20481;-47
2022/12/25 06:02:11;;;;;;;11.63;2.30;;;13.30;61.80;;;;;;5024275;28;20050;-49
2022/12/25 06:04:38;;;;;;;17.15;2.58;;;13.30;61.80;;;;;;5020126;28;21554;-46
2022/12/25 06:07:06;;;;;;;12.68;2.63;;;13.30;61.80;;;;;;5023013;28;20057;-48
2022/12/25 06:09:34;;;;;;;6.38;2.15;;;13.30;61.80;;;;;;5022107;28;20049;-44
2022/12/25 06:12:01;;;;;;;5.93;2.10;;;13.30;61.80;;;;;;5024426;28;20532;-45
2022/12/25 06:14:28;;;;;;;8.35;2.35;;;13.30;61.80;;;;;;5023300;28;20053;-45
2022/12/25 06:16:55;;;;;;;10.13;2.80;;;13.30;61.90;;;;;;5023394;28;20486;-46
2022/12/25 06:19:22;;;;;;;11.77;3.10;;;13.30;61.90;;;;;;5024156;28;20543;-45
2022/12/25 06:21:53;;;;;;;18.00;3.80;;;13.30;61.90;;;;;;5021638;28;20053;-48
2022/12/25 06:24:22;;;;;;;9.18;3.22;;;13.30;61.80;;;;;;5021738;28;20053;-46
2022/12/25 06:26:49;;;;;;;9.77;3.88;;;13.30;61.80;;;;;;5023039;28;20057;-47
2022/12/25 06:29:17;;;;;;;20.67;4.68;;;13.30;61.80;;;;;;5024305;28;20049;-49
2022/12/25 06:31:44;;;;;;;11.50;3.58;;;13.30;62.50;;;;;;5024021;28;20057;-47
2022/12/25 06:34:15;;;;;;;8.63;3.40;;;13.30;61.80;;;;;;5021874;28;20053;-45
2022/12/25 06:36:42;;;;;;;10.63;3.63;;;13.30;61.80;;;;;;5020482;28;20045;-45
2022/12/25 06:39:09;;;;;;;11.52;4.50;;;13.30;61.70;;;;;;5022604;28;20061;-47
2022/12/25 06:41:38;;;;;;;9.48;3.53;;;13.30;61.70;;;;;;5023107;28;20049;-45
2022/12/25 06:44:05;;;;;;;9.75;3.78;;;13.30;61.80;;;;;;5023053;28;20061;-44
2022/12/25 06:46:32;;;;;;;12.27;3.30;;;13.30;61.80;;;;;;5018890;28;20058;-45
2022/12/25 06:49:00;;;;;;;12.27;3.35;;;13.30;61.90;;;;;;5019824;28;20049;-50
2022/12/25 06:51:29;;;;;;;10.35;3.97;;;13.30;61.90;;;;;;5018249;28;20069;-45
2022/12/25 06:53:57;;;;;;;13.57;5.22;;;13.30;62.00;;;;;;5020544;28;20065;-47
2022/12/25 06:56:26;;;;;;;70.90;30.60;;;13.20;62.00;;;;;;5025093;28;20049;-48
2022/12/25 06:58:57;;;;;;;46.92;21.60;;;13.20;62.00;;;;;;5022246;28;20053;-48
2022/12/25 07:01:27;;;;;;;14.20;6.72;;;13.20;62.10;;;;;;5023234;28;20061;-45
2022/12/25 07:03:57;;;;;;;8.93;3.45;;;13.20;62.10;;;;;;5022497;28;20387;-47
2022/12/25 07:06:24;;;;;;;11.73;3.20;;;13.20;62.20;;;;;;5024025;28;20054;-48
2022/12/25 07:08:52;;;;;;;8.57;3.65;;;13.20;62.20;;;;;;5021151;28;20069;-46
2022/12/25 07:11:20;;;;;;;5.93;2.50;;;13.20;62.40;;;;;;5020742;28;20064;-47
2022/12/25 07:13:47;;;;;;;8.25;2.78;;;13.20;62.40;;;;;;5022793;28;20053;-47
2022/12/25 07:16:16;;;;;;;9.85;2.72;;;13.20;62.50;;;;;;5023511;28;20068;-47
2022/12/25 07:18:43;;;;;;;8.38;3.10;;;13.20;62.50;;;;;;5023952;28;20336;-47
2022/12/25 07:21:13;;;;;;;10.48;3.03;;;13.20;62.60;;;;;;5024623;28;20057;-47
2022/12/25 07:23:40;;;;;;;21.85;7.88;;;13.20;62.70;;;;;;5022733;28;20065;-46
2022/12/25 07:26:09;;;;;;;19.52;9.80;;;13.20;62.60;;;;;;5024105;28;20072;-46
2022/12/25 07:28:37;;;;;;;8.77;4.22;;;13.20;62.60;;;;;;5024156;28;20060;-48
2022/12/25 07:31:06;;;;;;;5.80;3.13;;;13.10;62.60;;;;;;5022240;28;20057;-46
2022/12/25 07:33:35;;;;;;;6.45;2.90;;;13.10;62.70;;;;;;5022972;28;20053;-49
2022/12/25 07:36:04;;;;;;;8.05;2.88;;;13.20;62.80;;;;;;5018464;28;20401;-48
2022/12/25 07:38:32;;;;;;;5.88;2.70;;;13.20;62.80;;;;;;5019792;28;20057;-45
2022/12/25 07:40:59;;;;;;;7.72;2.47;;;13.10;62.80;;;;;;5023542;28;20064;-51
2022/12/25 07:43:27;;;;;;;10.90;3.05;;;13.10;62.80;;;;;;5021122;28;20505;-49
2022/12/25 07:45:55;;;;;;;7.53;2.65;;;13.10;62.80;;;;;;5024773;28;20064;-46
2022/12/25 07:48:23;;;;;;;8.70;2.75;;;13.20;62.90;;;;;;5022743;28;20490;-45
2022/12/25 07:50:57;;;;;;;9.75;3.22;;;13.20;62.90;;;;;;5023703;28;20053;-44
2022/12/25 07:53:25;;;;;;;8.55;2.60;;;13.10;63.00;;;;;;5022895;28;20045;-46
2022/12/25 07:55:57;;;;;;;10.00;2.63;;;13.10;62.90;;;;;;5020959;28;20049;-47
2022/12/25 07:58:24;;;;;;;9.68;2.70;;;13.20;63.10;;;;;;5021976;28;20378;-49
2022/12/25 08:00:51;;;;;;;7.47;3.00;;;13.10;63.00;;;;;;5022556;28;20052;-49
2022/12/25 08:03:19;;;;;;;5.30;2.35;;;13.10;63.00;;;;;;5022850;28;20049;-48
2022/12/25 08:05:46;;;;;;;5.60;2.33;;;13.10;63.00;;;;;;5021514;28;20049;-49
2022/12/25 08:08:15;;;;;;;5.93;2.35;;;13.10;63.10;;;;;;5018487;28;20124;-48
2022/12/25 08:10:46;;;;;;;3.88;1.90;;;13.20;63.30;;;;;;5021756;28;20493;-48
2022/12/25 08:13:13;;;;;;;4.88;1.88;;;13.10;63.20;;;;;;5022008;28;20054;-48
2022/12/25 08:15:41;;;;;;;6.47;2.17;;;13.10;63.20;;;;;;5023739;28;20489;-49
2022/12/25 08:18:08;;;;;;;10.50;2.80;;;13.10;63.20;;;;;;5023169;28;20072;-44
2022/12/25 08:20:35;;;;;;;6.72;2.00;;;13.20;63.30;;;;;;5023333;28;20429;-48
2022/12/25 08:23:03;;;;;;;5.45;1.92;;;13.20;63.20;;;;;;5020637;28;20056;-47
2022/12/25 08:25:32;;;;;;;6.15;2.17;;;13.20;63.20;;;;;;5019113;28;20064;-47
2022/12/25 08:28:00;;;;;;;9.18;2.25;;;13.20;63.20;;;;;;5019712;28;20057;-51
2022/12/25 08:30:28;;;;;;;6.88;2.70;;;13.20;63.20;;;;;;5020136;28;20602;-46
2022/12/25 08:32:56;;;;;;;7.32;2.13;;;13.20;63.20;;;;;;5023818;28;20053;-50
2022/12/25 08:35:25;;;;;;;5.55;1.85;;;13.20;63.20;;;;;;5021756;28;20049;-49
2022/12/25 08:37:52;;;;;;;5.32;2.03;;;13.20;63.10;;;;;;5022356;28;20053;-47
2022/12/25 08:40:20;;;;;;;5.35;1.90;;;13.30;63.20;;;;;;5021072;28;20060;-46
2022/12/25 08:42:49;;;;;;;9.15;2.10;;;13.20;63.00;;;;;;5023439;28;20545;-50
2022/12/25 08:45:17;;;;;;;8.02;1.92;;;13.20;63.10;;;;;;5022923;28;20049;-48
2022/12/25 08:47:45;;;;;;;7.38;2.17;;;13.30;63.10;;;;;;5020507;28;20498;-49
2022/12/25 08:50:12;;;;;;;5.55;1.80;;;13.30;63.10;;;;;;5018016;28;20492;-50
2022/12/25 08:52:40;;;;;;;6.53;2.17;;;13.30;63.10;;;;;;5019230;28;20400;-46
2022/12/25 08:55:08;;;;;;;9.07;1.98;;;13.30;63.10;;;;;;5020032;28;20589;-47
2022/12/25 08:57:35;;;;;;;4.57;1.50;;;13.30;63.20;;;;;;5016847;28;20054;-47
2022/12/25 09:00:05;;;;;;;6.43;1.73;;;13.30;63.30;;;;;;5019899;28;20057;-45
2022/12/25 09:02:32;;;;;;;10.82;2.10;;;13.30;63.30;;;;;;5012636;28;20386;-48
2022/12/25 09:05:00;;;;;;;6.72;1.65;;;13.30;63.20;;;;;;5018573;28;20060;-46
2022/12/25 09:07:27;;;;;;;8.82;2.20;;;13.30;63.30;;;;;;5019246;28;20066;-49
2022/12/25 09:09:54;;;;;;;5.50;1.60;;;13.40;63.40;;;;;;5018248;28;20382;-49
2022/12/25 09:12:21;;;;;;;4.28;1.73;;;13.30;63.30;;;;;;5022715;28;20064;-47
2022/12/25 09:14:48;;;;;;;5.03;1.70;;;13.40;63.40;;;;;;5017105;28;20053;-49
2022/12/25 09:17:17;;;;;;;5.13;1.65;;;13.30;63.30;;;;;;5016867;28;20056;-49
2022/12/25 09:19:44;;;;;;;6.88;2.00;;;13.30;63.30;;;;;;5020023;28;20136;-49
2022/12/25 09:22:11;;;;;;;8.35;2.15;;;13.40;63.40;;;;;;5019101;28;20049;-49
2022/12/25 09:24:39;;;;;;;8.60;1.83;;;13.40;63.50;;;;;;5016877;28;20061;-47
2022/12/25 09:27:06;;;;;;;5.78;1.90;;;13.40;63.50;;;;;;5019210;28;20053;-50
2022/12/25 09:29:37;;;;;;;4.60;1.55;;;13.40;63.50;;;;;;5018877;28;20058;-49
2022/12/25 09:32:05;;;;;;;4.00;1.48;;;13.40;63.60;;;;;;5019431;28;20060;-49
2022/12/25 09:34:34;;;;;;;6.45;2.08;;;13.40;63.60;;;;;;5018706;28;20408;-49
2022/12/25 09:37:02;;;;;;;4.28;1.52;;;13.40;63.70;;;;;;5013859;28;20398;-52
2022/12/25 09:39:29;;;;;;;9.65;2.30;;;13.40;63.70;;;;;;5018033;28;20386;-48
2022/12/25 09:42:01;;;;;;;6.40;2.00;;;13.40;63.80;;;;;;5017925;28;20060;-47
2022/12/25 09:44:32;;;;;;;3.90;1.60;;;13.40;64.00;;;;;;5021117;28;20054;-49
2022/12/25 09:47:04;;;;;;;3.97;1.77;;;13.40;64.00;;;;;;5013979;28;20057;-49
2022/12/25 09:49:39;;;;;;;7.13;1.67;;;13.50;64.10;;;;;;5015220;28;20397;-49
2022/12/25 09:52:12;;;;;;;6.20;1.77;;;13.40;64.10;;;;;;5017078;28;20049;-49
2022/12/25 09:54:49;;;;;;;5.13;1.55;;;13.40;64.00;;;;;;5017657;28;20144;-48
2022/12/25 09:57:17;;;;;;;6.45;1.88;;;13.40;64.00;;;;;;5020390;28;20413;-51
2022/12/25 09:59:46;;;;;;;6.18;1.80;;;13.50;64.80;;;;;;5019429;28;20050;-47
2022/12/25 10:02:41;;;;;;;3.70;1.92;;;13.50;64.10;;;;;;5018452;28;20060;-49
2022/12/25 10:05:25;;;;;;;4.95;2.10;;;13.50;64.20;;;;;;5006129;28;20057;-45
2022/12/25 10:08:01;;;;;;;4.63;2.17;;;13.50;64.00;;;;;;5020846;28;20056;-50
2022/12/25 10:10:42;;;;;;;4.57;2.10;;;13.50;63.90;;;;;;5015645;28;20056;-46
2022/12/25 10:13:31;;;;;;;6.22;1.65;;;13.50;64.00;;;;;;5017148;28;20056;-46
2022/12/25 10:16:12;;;;;;;11.10;2.00;;;13.50;64.00;;;;;;5015772;28;20061;-47
2022/12/25 10:18:56;;;;;;;6.80;2.15;;;13.50;63.90;;;;;;5018577;28;20046;-50
2022/12/25 10:21:26;;;;;;;;;;;13.50;64.00;;;;;;5018125;28;20867;-47
2022/12/25 10:24:05;;;;;;;6.00;1.98;;;13.50;64.00;;;;;;5021625;28;19925;-49
2022/12/25 10:26:34;;;;;;;6.60;2.22;;;13.50;63.80;;;;;;5018697;28;20056;-48
2022/12/25 10:29:07;;;;;;;8.02;2.10;;;13.60;63.90;;;;;;5022134;28;20061;-47
2022/12/25 10:31:36;;;;;;;5.75;2.03;;;13.50;63.90;;;;;;5023547;28;20053;-46
2022/12/25 10:34:06;;;;;;;5.57;2.38;;;13.50;64.00;;;;;;5017419;28;20045;-50
2022/12/25 10:36:35;;;;;;;7.90;2.55;;;13.50;64.20;;;;;;5021970;28;20053;-50
2022/12/25 10:39:02;;;;;;;5.18;1.95;;;13.50;64.20;;;;;;5022219;28;20069;-49
2022/12/25 10:41:41;;;;;;;5.75;2.15;;;13.50;64.20;;;;;;5022756;28;20060;-46
2022/12/25 10:44:15;;;;;;;6.70;2.13;;;13.60;64.30;;;;;;5019991;28;20060;-47
2022/12/25 10:46:47;;;;;;;6.63;2.28;;;13.60;64.30;;;;;;5017774;28;20094;-48
2022/12/25 10:49:16;;;;;;;5.85;2.53;;;13.60;64.20;;;;;;5019992;28;20072;-46
2022/12/25 10:51:46;;;;;;;6.28;2.38;;;13.60;64.20;;;;;;5018613;28;20072;-46
2022/12/25 10:54:22;;;;;;;5.53;2.10;;;13.60;64.20;;;;;;5016914;28;20497;-47
2022/12/25 10:56:53;;;;;;;11.07;4.00;;;13.60;64.20;;;;;;5020907;28;20065;-49
2022/12/25 10:59:21;;;;;;;4.90;2.72;;;13.60;64.20;;;;;;5023541;28;20053;-48
2022/12/25 11:01:48;;;;;;;6.10;1.90;;;13.60;64.20;;;;;;5022503;28;20057;-50
2022/12/25 11:04:20;;;;;;;6.38;2.88;;;13.60;64.30;;;;;;5022765;28;20053;-49
2022/12/25 11:06:58;;;;;;;4.80;2.15;;;13.60;64.30;;;;;;5020956;28;20056;-48
2022/12/25 11:09:26;;;;;;;6.60;2.25;;;13.60;64.30;;;;;;5020504;28;20057;-49
2022/12/25 11:11:53;;;;;;;80.35;41.30;;;13.60;64.20;;;;;;5020517;28;20339;-50
2022/12/25 11:14:22;;;;;;;17.27;8.70;;;13.70;64.20;;;;;;5019778;28;20045;-50
2022/12/25 11:16:50;;;;;;;9.90;4.43;;;13.60;64.10;;;;;;5024682;28;20057;-50
2022/12/25 11:19:26;;;;;;;8.23;2.83;;;13.70;64.20;;;;;;5023844;28;20489;-47
2022/12/25 11:21:56;;;;;;;4.47;2.10;;;13.70;64.20;;;;;;5022145;28;20057;-48
2022/12/25 11:24:26;;;;;;;6.90;2.58;;;13.70;64.20;;;;;;5022654;28;20053;-45
2022/12/25 11:26:56;;;;;;;5.63;2.00;;;13.70;64.30;;;;;;5024613;28;20057;-48
2022/12/25 11:29:29;;;;;;;8.90;2.42;;;13.70;64.30;;;;;;5022107;28;20050;-48
2022/12/25 11:31:59;;;;;;;8.93;2.67;;;13.70;64.30;;;;;;5023140;28;20056;-47
2022/12/25 11:34:31;;;;;;;9.35;3.25;;;13.70;64.40;;;;;;5023917;28;20401;-48
2022/12/25 11:36:59;;;;;;;5.72;2.50;;;13.80;64.60;;;;;;5022324;28;20057;-46
2022/12/25 11:39:30;;;;;;;7.07;2.80;;;13.80;64.60;;;;;;5023138;28;20056;-49
2022/12/25 11:42:01;;;;;;;4.82;2.75;;;13.80;64.70;;;;;;5024716;28;20049;-49
2022/12/25 11:44:37;;;;;;;4.60;2.33;;;13.80;64.70;;;;;;5023920;28;20061;-47
2022/12/25 11:47:13;;;;;;;9.82;3.60;;;13.80;64.70;;;;;;5022937;28;20046;-49
2022/12/25 11:49:47;;;;;;;6.15;2.50;;;13.90;64.80;;;;;;5024063;28;20421;-46
2022/12/25 11:52:16;;;;;;;4.97;2.30;;;13.90;64.70;;;;;;5022104;28;20061;-47
2022/12/25 11:54:53;;;;;;;6.07;2.40;;;13.90;65.10;;;;;;5022727;28;20067;-49
2022/12/25 11:57:23;;;;;;;9.77;2.78;;;14.00;64.70;;;;;;5021519;28;20064;-44
2022/12/25 11:59:56;;;;;;;5.88;2.53;;;14.00;64.70;;;;;;5024085;28;20057;-48
2022/12/25 12:02:32;;;;;;;8.98;3.22;;;14.00;64.70;;;;;;5023938;28;20049;-49
2022/12/25 12:05:09;;;;;;;7.15;2.90;;;14.00;64.60;;;;;;5021717;28;20052;-50
2022/12/25 12:07:46;;;;;;;6.53;2.65;;;14.00;64.50;;;;;;5022754;28;20064;-49
2022/12/25 12:10:21;;;;;;;5.45;2.60;;;14.00;64.50;;;;;;5022258;28;20057;-49
2022/12/25 12:12:56;;;;;;;4.75;2.22;;;14.00;64.60;;;;;;5023863;28;20065;-45
2022/12/25 12:15:29;;;;;;;4.57;2.38;;;14.10;64.60;;;;;;5022856;28;21451;-46
2022/12/25 12:18:07;;;;;;;7.07;2.67;;;14.10;64.70;;;;;;5023114;28;20060;-50
2022/12/25 12:20:36;;;;;;;4.55;2.58;;;14.10;64.70;;;;;;5021759;28;20418;-47
2022/12/25 12:23:13;;;;;;;6.78;2.53;;;14.20;64.70;;;;;;5021773;28;20057;-47
2022/12/25 12:25:44;;;;;;;8.23;2.85;;;14.20;64.70;;;;;;5020652;28;20065;-46
2022/12/25 12:28:21;;;;;;;4.47;2.67;;;14.20;64.60;;;;;;5023466;28;20057;-49
2022/12/25 12:30:58;;;;;;;5.90;2.53;;;14.20;64.60;;;;;;5023801;28;20057;-47
2022/12/25 12:33:30;;;;;;;5.82;2.67;;;14.20;64.60;;;;;;5023843;28;20053;-49
2022/12/25 12:35:57;;;;;;;5.32;2.75;;;14.20;64.50;;;;;;5021679;28;20056;-49
2022/12/25 12:38:26;;;;;;;5.25;2.50;;;14.30;64.50;;;;;;5022022;28;20057;-47
2022/12/25 12:40:58;;;;;;;8.52;3.10;;;14.30;64.40;;;;;;5020770;28;20052;-45
2022/12/25 12:43:35;;;;;;;9.25;2.50;;;14.30;64.40;;;;;;5022479;28;20056;-47
2022/12/25 12:46:06;;;;;;;4.57;2.80;;;14.30;64.50;;;;;;5020944;28;20057;-51
2022/12/25 12:48:39;;;;;;;4.90;2.95;;;14.30;64.40;;;;;;5023758;28;20084;-47
2022/12/25 12:51:09;;;;;;;4.70;2.40;;;14.30;64.40;;;;;;5021819;28;20060;-46
2022/12/25 12:53:38;;;;;;;6.70;3.00;;;14.30;64.40;;;;;;5021209;28;20053;-47
2022/12/25 12:56:16;;;;;;;7.85;2.63;;;14.40;64.50;;;;;;5020972;28;20060;-46
2022/12/25 12:58:48;;;;;;;5.80;2.35;;;14.40;64.40;;;;;;5022780;28;20079;-47
2022/12/25 13:01:35;;;;;;;7.15;3.13;;;14.40;64.30;;;;;;5023272;28;20900;-50
2022/12/25 13:04:17;;;;;;;7.18;3.05;;;14.40;64.30;;;;;;5022373;28;20405;-47
2022/12/25 13:06:50;;;;;;;5.25;3.00;;;14.40;64.20;;;;;;5021943;28;20053;-46
2022/12/25 13:09:27;;;;;;;6.32;2.75;;;14.40;64.10;;;;;;5020984;28;20057;-48
2022/12/25 13:11:56;;;;;;;4.57;2.67;;;14.40;64.10;;;;;;5022349;28;20049;-49
2022/12/25 13:14:24;;;;;;;10.25;2.88;;;14.40;64.10;;;;;;5022491;28;20053;-51
2022/12/25 13:16:53;;;;;;;4.15;2.28;;;14.40;64.10;;;;;;5020943;28;20128;-48
2022/12/25 13:19:23;;;;;;;4.50;3.10;;;14.50;64.10;;;;;;5022370;28;20060;-49
2022/12/25 13:21:55;;;;;;;5.00;2.60;;;14.50;64.10;;;;;;5020839;28;20485;-51
2022/12/25 13:24:25;;;;;;;7.43;2.97;;;14.50;64.00;;;;;;5020003;28;20050;-46
2022/12/25 13:26:52;;;;;;;5.70;2.67;;;14.50;64.00;;;;;;5022255;28;20061;-46
2022/12/25 13:29:29;;;;;;;4.30;2.25;;;14.50;64.00;;;;;;5022208;28;20054;-49
2022/12/25 13:31:57;;;;;;;3.63;2.00;;;14.50;63.90;;;;;;5021638;28;21034;-50
2022/12/25 13:34:29;;;;;;;6.18;2.60;;;14.50;63.90;;;;;;5021449;28;20061;-48
2022/12/25 13:36:58;;;;;;;4.78;2.58;;;14.50;63.70;;;;;;5020068;28;20053;-47
2022/12/25 13:39:25;;;;;;;4.20;2.20;;;14.50;63.70;;;;;;5020021;28;20413;-47
2022/12/25 13:42:08;;;;;;;5.88;2.70;;;14.50;63.70;;;;;;5020619;28;20053;-46
2022/12/25 13:44:47;;;;;;;5.07;2.40;;;14.50;63.70;;;;;;5021782;28;20386;-47
2022/12/25 13:47:23;;;;;;;10.55;2.60;;;14.50;63.60;;;;;;5019743;28;20057;-48
2022/12/25 13:49:52;;;;;;;5.63;2.80;;;14.50;63.60;;;;;;5021145;28;20045;-47
2022/12/25 13:52:22;;;;;;;6.55;2.95;;;14.50;63.60;;;;;;5021027;28;20068;-45
2022/12/25 13:54:56;;;;;;;5.43;2.88;;;14.50;63.70;;;;;;5020640;28;20049;-48
2022/12/25 13:57:28;;;;;;;3.47;2.38;;;14.50;63.70;;;;;;5023646;28;20490;-46
2022/12/25 13:59:58;;;;;;;5.57;2.83;;;14.60;63.80;;;;;;5024722;28;20490;-47
2022/12/25 14:02:31;;;;;;;6.30;2.50;;;14.60;63.80;;;;;;5026568;28;20079;-46
2022/12/25 14:04:58;;;;;;;4.80;2.60;;;14.60;63.80;;;;;;5023238;28;20049;-47
2022/12/25 14:07:27;;;;;;;4.97;3.00;;;14.60;63.80;;;;;;5024506;28;20053;-49
2022/12/25 14:09:59;;;;;;;6.35;2.78;;;14.60;63.90;;;;;;5024723;28;20057;-47
2022/12/25 14:12:28;;;;;;;6.88;2.70;;;14.60;63.90;;;;;;5026271;28;20065;-49
2022/12/25 14:14:59;;;;;;;7.70;2.70;;;14.60;63.90;;;;;;5024842;28;20058;-47
2022/12/25 14:17:26;;;;;;;6.07;2.53;;;14.60;63.80;;;;;;5024853;28;20057;-49
2022/12/25 14:19:58;;;;;;;4.38;2.85;;;14.60;63.70;;;;;;5024139;28;20366;-49
2022/12/25 14:22:27;;;;;;;4.30;2.40;;;14.60;63.60;;;;;;5024784;28;20045;-46
2022/12/25 14:24:54;;;;;;;4.60;2.90;;;14.70;63.70;;;;;;5024783;28;20474;-47
2022/12/25 14:27:24;;;;;;;4.75;2.85;;;14.60;63.60;;;;;;5024658;28;20061;-46
2022/12/25 14:29:53;;;;;;;5.93;2.95;;;14.70;63.70;;;;;;5025778;28;20057;-47
2022/12/25 14:32:24;;;;;;;5.18;2.63;;;14.70;63.70;;;;;;5021407;28;20068;-50
2022/12/25 14:34:54;;;;;;;8.48;2.85;;;14.70;63.60;;;;;;5024992;28;20621;-49
2022/12/25 14:37:25;;;;;;;4.78;2.80;;;14.70;63.60;;;;;;5024855;28;20066;-46
2022/12/25 14:39:58;;;;;;;6.50;2.83;;;14.70;63.60;;;;;;5024127;28;20045;-50